West Palm Beach, FL (33401)

4:35 AM EST on February 11, 2016 (GMT -0500)
Palm Beach, FL | | Change Station
CLOSE
Current Station
Personal Weather Station
Location: Palm Beach, FL
Elevation: 8 ft
Nearby Weather Stations

Elev 8 ft 26.71 °N, 80.04 °W | Updated 1 second ago

Partly Cloudy
Partly Cloudy
47.1 °F
Feels Like 47 °F
N
2.9
Wind Variable Wind from WNW
Gusts 7.0 mph

Today
High -- | Low -- °F
--% Chance of Precip.
Yesterday
High -- | Low -- °F
Precip. -- in
Pressure 30.26 in
Visibility 10.0 miles
Clouds Few 25000 ft
Windchill 47 °F
Dew Point 40 °F
Humidity 75%
Rainfall 0.00 in
Snow Depth Not available.
6:59 AM 6:09 PM
Waxing Crescent, 10% visible
METAR KPBI 110853Z 29004KT 10SM FEW250 06/02 A3026 RMK AO2 SLP245 T00610022 55005 $
Pressure 30.26 in
Visibility 10.0 miles
Clouds Few 25000 ft
Windchill 47 °F
Dew Point 40 °F
Humidity 75%
Rainfall 0.00 in
Snow Depth Not available.
6:59 AM 6:09 PM
Waxing Crescent, 10% visible
METAR KPBI 110853Z 29004KT 10SM FEW250 06/02 A3026 RMK AO2 SLP245 T00610022 55005 $

10-Day Weather Forecast

Almanac

Astronomy

Feb. 11, 2016 Rise Set
Actual Time
Civil Twilight
Nautical Twilight
Astronomical Twilight
Moon
Length of Visible Light
Length of Day
Tomorrow will be .
, % of the Moon is Illuminated

Today's Extremes

State Highs State Lows

Community

WunderPhotos

Upload Photos

1,892,030 photos uploaded!

WunderBlog® & News

Nearby

Air Quality

  Air Quality AQ Index Pollutant
Not available.

Snow Depth

Station Depth Elevation

Earthquake Activity

City Distance Mag. Time & Date
Minimum magnitude displayed is 2.5.

Coastal Water Temperatures

Place Temperature

Stations

Nearby Weather Stations

Station Location Temp. Windchill Dew Point Humidity Wind Precip. Elev Updated Type
                   

Watches & Warnings

There are currently no watches in effect.